Station Historical Data
Daily Summary for January 8, 2012 Units:  Both    English   Metric
« Previous Day
Next Day »
Daily Weekly Monthly Yearly Custom
  High: Low: Average:
Temperature: 51.4 °F /  10.8 °C 44.1 °F /  6.7 °C 47.4 °F /  8.6 °C
Dew Point: 49.9 °F /  9.9 °C 38.3 °F /  3.5 °C 44.3 °F /  6.8 °C
Humidity: 96% 72% 89%
Wind Speed: 10.0mph /  16.1km/h - 2.9mph /  4.7km/h
Wind Gust: 11.0mph /  17.7km/h - -
Wind- - ENE
Pressure: 30.18 in /  1021.9 hPa 30.09 in /  1018.8 hPa -
Precipitation: 0.20 in /  5.08 mm    
Historical Graphs
 
 
Tabular Data for January 8, 2012
Time Temperature Dew Point Pressure Wind Wind Speed Wind Gust Humidity Rainfall Rate (Hourly) Conditions
00:00 50.6 °F /  10.3 °C 44.3 °F /  6.8 °C 30.09in /  1018.8hPa NNE 6.0mph /  9.7km/h 8.0mph /  12.9km/h 79% 0.00in /  0mm
00:01 50.6 °F /  10.3 °C 44.0 °F /  6.7 °C 30.10in /  1019.2hPa NE 5.0mph /  8km/h 8.0mph /  12.9km/h 78% 0.00in /  0mm
00:06 50.5 °F /  10.3 °C 43.6 °F /  6.4 °C 30.10in /  1019.2hPa NNE 5.0mph /  8km/h 6.0mph /  9.7km/h 77% 0.00in /  0mm
00:11 50.4 °F /  10.2 °C 43.1 °F /  6.2 °C 30.10in /  1019.2hPa NE 5.0mph /  8km/h 7.0mph /  11.3km/h 76% 0.00in /  0mm
00:16 50.3 °F /  10.2 °C 42.7 °F /  5.9 °C 30.10in /  1019.2hPa NE 3.0mph /  4.8km/h 6.0mph /  9.7km/h 75% 0.00in /  0mm
00:21 50.3 °F /  10.2 °C 42.3 °F /  5.7 °C 30.10in /  1019.2hPa NNE 3.0mph /  4.8km/h 6.0mph /  9.7km/h 74% 0.00in /  0mm
00:26 50.3 °F /  10.2 °C 42.0 °F /  5.6 °C 30.10in /  1019.2hPa NNE 3.0mph /  4.8km/h 6.0mph /  9.7km/h 73% 0.00in /  0mm
00:31 50.2 °F /  10.1 °C 41.9 °F /  5.5 °C 30.10in /  1019.2hPa NNE 3.0mph /  4.8km/h 6.0mph /  9.7km/h 73% 0.00in /  0mm
00:36 50.2 °F /  10.1 °C 41.5 °F /  5.3 °C 30.10in /  1019.2hPa NNE 2.0mph /  3.2km/h 5.0mph /  8km/h 72% 0.00in /  0mm
00:41 50.2 °F /  10.1 °C 41.5 °F /  5.3 °C 30.11in /  1019.5hPa Calm   2.0mph /  3.2km/h 72% 0.00in /  0mm
00:46 50.1 °F /  10.1 °C 41.4 °F /  5.2 °C 30.11in /  1019.5hPa NNW 1.0mph /  1.6km/h 3.0mph /  4.8km/h 72% 0.00in /  0mm
00:51 49.9 °F /  9.9 °C 42.0 °F /  5.6 °C 30.11in /  1019.5hPa NNE 3.0mph /  4.8km/h 3.0mph /  4.8km/h 74% 0.16in /  4.06mm
00:56 49.2 °F /  9.6 °C 42.3 °F /  5.7 °C 30.10in /  1019.2hPa NE 2.0mph /  3.2km/h 4.0mph /  6.4km/h 77% 0.18in /  4.57mm
01:01 48.4 °F /  9.1 °C 43.2 °F /  6.2 °C 30.11in /  1019.5hPa NNW 3.0mph /  4.8km/h 6.0mph /  9.7km/h 82% 0.11in /  2.79mm
01:07 47.2 °F /  8.4 °C 42.6 °F /  5.9 °C 30.11in /  1019.5hPa NNE 2.0mph /  3.2km/h 5.0mph /  8km/h 84% 0.08in /  2.03mm
01:12 46.4 °F /  8 °C 41.8 °F /  5.4 °C 30.11in /  1019.5hPa NNE 5.0mph /  8km/h 6.0mph /  9.7km/h 84% 0.05in /  1.27mm
01:17 46.0 °F /  7.8 °C 41.4 °F /  5.2 °C 30.11in /  1019.5hPa NNE 5.0mph /  8km/h 7.0mph /  11.3km/h 84% 0.00in /  0mm
01:22 45.8 °F /  7.7 °C 41.2 °F /  5.1 °C 30.11in /  1019.5hPa NNE 5.0mph /  8km/h 9.0mph /  14.5km/h 84% 0.00in /  0mm
01:27 45.9 °F /  7.7 °C 40.7 °F /  4.8 °C 30.11in /  1019.5hPa NE 5.0mph /  8km/h 9.0mph /  14.5km/h 82% 0.00in /  0mm
01:32 46.0 °F /  7.8 °C 40.5 °F /  4.7 °C 30.11in /  1019.5hPa NE 6.0mph /  9.7km/h 8.0mph /  12.9km/h 81% 0.00in /  0mm
01:37 46.1 °F /  7.8 °C 40.9 °F /  4.9 °C 30.11in /  1019.5hPa NE 5.0mph /  8km/h 6.0mph /  9.7km/h 82% 0.00in /  0mm
01:42 46.1 °F /  7.8 °C 40.9 °F /  4.9 °C 30.11in /  1019.5hPa NE 6.0mph /  9.7km/h 6.0mph /  9.7km/h 82% 0.00in /  0mm
01:47 46.1 °F /  7.8 °C 40.9 °F /  4.9 °C 30.10in /  1019.2hPa East 3.0mph /  4.8km/h 7.0mph /  11.3km/h 82% 0.00in /  0mm
01:52 46.1 °F /  7.8 °C 40.9 °F /  4.9 °C 30.10in /  1019.2hPa NNE 4.0mph /  6.4km/h 8.0mph /  12.9km/h 82% 0.00in /  0mm
01:57 46.0 °F /  7.8 °C 41.1 °F /  5.1 °C 30.10in /  1019.2hPa NE 4.0mph /  6.4km/h 6.0mph /  9.7km/h 83% 0.00in /  0mm
02:02 46.0 °F /  7.8 °C 41.1 °F /  5.1 °C 30.10in /  1019.2hPa NNE 4.0mph /  6.4km/h 7.0mph /  11.3km/h 83% 0.00in /  0mm
02:07 45.9 °F /  7.7 °C 41.0 °F /  5 °C 30.10in /  1019.2hPa NE 2.0mph /  3.2km/h 4.0mph /  6.4km/h 83% 0.00in /  0mm
02:12 46.0 °F /  7.8 °C 41.4 °F /  5.2 °C 30.11in /  1019.5hPa NE 2.0mph /  3.2km/h 3.0mph /  4.8km/h 84% 0.00in /  0mm
02:17 46.0 °F /  7.8 °C 41.8 °F /  5.4 °C 30.11in /  1019.5hPa NNW 2.0mph /  3.2km/h 3.0mph /  4.8km/h 85% 0.00in /  0mm
02:22 45.9 °F /  7.7 °C 42.3 °F /  5.7 °C 30.12in /  1019.9hPa NW 1.0mph /  1.6km/h 3.0mph /  4.8km/h 87% 0.00in /  0mm
02:27 45.7 °F /  7.6 °C 42.4 °F /  5.8 °C 30.12in /  1019.9hPa NW 1.0mph /  1.6km/h 2.0mph /  3.2km/h 88% 0.00in /  0mm
02:32 45.6 °F /  7.6 °C 42.3 °F /  5.7 °C 30.12in /  1019.9hPa Calm   1.0mph /  1.6km/h 88% 0.00in /  0mm
02:37 45.6 °F /  7.6 °C 42.3 °F /  5.7 °C 30.12in /  1019.9hPa NNE 2.0mph /  3.2km/h 3.0mph /  4.8km/h 88% 0.00in /  0mm
02:42 45.7 °F /  7.6 °C 42.1 °F /  5.6 °C 30.12in /  1019.9hPa NE 2.0mph /  3.2km/h 3.0mph /  4.8km/h 87% 0.00in /  0mm
02:47 45.8 °F /  7.7 °C 41.2 °F /  5.1 °C 30.12in /  1019.9hPa NE 4.0mph /  6.4km/h 7.0mph /  11.3km/h 84% 0.00in /  0mm
02:52 45.9 °F /  7.7 °C 40.7 °F /  4.8 °C 30.12in /  1019.9hPa NNE 5.0mph /  8km/h 8.0mph /  12.9km/h 82% 0.00in /  0mm
02:58 45.8 °F /  7.7 °C 40.3 °F /  4.6 °C 30.12in /  1019.9hPa North 2.0mph /  3.2km/h 10.0mph /  16.1km/h 81% 0.00in /  0mm
03:03 45.6 °F /  7.6 °C 40.7 °F /  4.8 °C 30.12in /  1019.9hPa NE 3.0mph /  4.8km/h 6.0mph /  9.7km/h 83% 0.00in /  0mm
03:08 45.2 °F /  7.3 °C 40.7 °F /  4.8 °C 30.12in /  1019.9hPa NE 10.0mph /  16.1km/h 11.0mph /  17.7km/h 84% 0.00in /  0mm
03:13 45.0 °F /  7.2 °C 40.5 °F /  4.7 °C 30.12in /  1019.9hPa NE 8.0mph /  12.9km/h 8.0mph /  12.9km/h 84% 0.00in /  0mm
03:18 44.9 °F /  7.2 °C 40.4 °F /  4.7 °C 30.12in /  1019.9hPa NNE 3.0mph /  4.8km/h 7.0mph /  11.3km/h 84% 0.00in /  0mm
03:23 44.8 °F /  7.1 °C 40.3 °F /  4.6 °C 30.12in /  1019.9hPa NE 3.0mph /  4.8km/h 5.0mph /  8km/h 84% 0.00in /  0mm
03:28 44.7 °F /  7.1 °C 40.5 °F /  4.7 °C 30.11in /  1019.5hPa NE 6.0mph /  9.7km/h 6.0mph /  9.7km/h 85% 0.00in /  0mm
03:33 44.6 °F /  7 °C 40.1 °F /  4.5 °C 30.11in /  1019.5hPa NNE 5.0mph /  8km/h 9.0mph /  14.5km/h 84% 0.00in /  0mm
03:38 44.6 °F /  7 °C 40.1 °F /  4.5 °C 30.11in /  1019.5hPa NNE 2.0mph /  3.2km/h 8.0mph /  12.9km/h 84% 0.00in /  0mm
03:43 44.5 °F /  6.9 °C 40.6 °F /  4.8 °C 30.12in /  1019.9hPa NNW 2.0mph /  3.2km/h 5.0mph /  8km/h 86% 0.00in /  0mm
03:48 44.4 °F /  6.9 °C 40.5 °F /  4.7 °C 30.11in /  1019.5hPa NE 2.0mph /  3.2km/h 5.0mph /  8km/h 86% 0.00in /  0mm
03:53 44.4 °F /  6.9 °C 40.5 °F /  4.7 °C 30.11in /  1019.5hPa NNE 4.0mph /  6.4km/h 5.0mph /  8km/h 86% 0.00in /  0mm
03:58 44.4 °F /  6.9 °C 40.5 °F /  4.7 °C 30.11in /  1019.5hPa NNE 3.0mph /  4.8km/h 6.0mph /  9.7km/h 86% 0.00in /  0mm
04:03 44.4 °F /  6.9 °C 40.5 °F /  4.7 °C 30.11in /  1019.5hPa NNE 4.0mph /  6.4km/h 6.0mph /  9.7km/h 86% 0.00in /  0mm
04:09 44.3 °F /  6.8 °C 40.4 °F /  4.7 °C 30.11in /  1019.5hPa NNE 2.0mph /  3.2km/h 7.0mph /  11.3km/h 86% 0.00in /  0mm
04:14 44.2 °F /  6.8 °C 40.3 °F /  4.6 °C 30.11in /  1019.5hPa NE 6.0mph /  9.7km/h 8.0mph /  12.9km/h 86% 0.00in /  0mm
04:19 44.1 °F /  6.7 °C 40.2 °F /  4.6 °C 30.10in /  1019.2hPa NNE 5.0mph /  8km/h 8.0mph /  12.9km/h 86% 0.00in /  0mm
04:24 44.1 °F /  6.7 °C 40.2 °F /  4.6 °C 30.10in /  1019.2hPa NE 4.0mph /  6.4km/h 6.0mph /  9.7km/h 86% 0.00in /  0mm
04:29 44.1 °F /  6.7 °C 39.9 °F /  4.4 °C 30.10in /  1019.2hPa ENE 7.0mph /  11.3km/h 9.0mph /  14.5km/h 85% 0.00in /  0mm
04:34 44.2 °F /  6.8 °C 39.7 °F /  4.3 °C 30.10in /  1019.2hPa NE 5.0mph /  8km/h 8.0mph /  12.9km/h 84% 0.00in /  0mm
04:39 44.4 °F /  6.9 °C 39.6 °F /  4.2 °C 30.10in /  1019.2hPa NE 4.0mph /  6.4km/h 9.0mph /  14.5km/h 83% 0.00in /  0mm
04:40 44.4 °F /  6.9 °C 39.9 °F /  4.4 °C 30.10in /  1019.2hPa NNE 5.0mph /  8km/h 8.0mph /  12.9km/h 84% 0.00in /  0mm
04:45 44.5 °F /  6.9 °C 39.7 °F /  4.3 °C 30.10in /  1019.2hPa NE 3.0mph /  4.8km/h 8.0mph /  12.9km/h 83% 0.00in /  0mm
04:50 44.6 °F /  7 °C 39.5 °F /  4.2 °C 30.10in /  1019.2hPa NNE 4.0mph /  6.4km/h 8.0mph /  12.9km/h 82% 0.00in /  0mm
04:55 44.6 °F /  7 °C 39.5 °F /  4.2 °C 30.10in /  1019.2hPa NE 7.0mph /  11.3km/h 10.0mph /  16.1km/h 82% 0.00in /  0mm
05:00 44.6 °F /  7 °C 39.1 °F /  3.9 °C 30.10in /  1019.2hPa NE 3.0mph /  4.8km/h 10.0mph /  16.1km/h 81% 0.00in /  0mm
05:05 44.7 °F /  7.1 °C 38.9 °F /  3.8 °C 30.10in /  1019.2hPa NE 7.0mph /  11.3km/h 8.0mph /  12.9km/h 80% 0.00in /  0mm
05:10 44.8 °F /  7.1 °C 39.0 °F /  3.9 °C 30.10in /  1019.2hPa NE 4.0mph /  6.4km/h 10.0mph /  16.1km/h 80% 0.00in /  0mm
05:15 44.9 °F /  7.2 °C 38.8 °F /  3.8 °C 30.10in /  1019.2hPa NE 8.0mph /  12.9km/h 11.0mph /  17.7km/h 79% 0.00in /  0mm
05:20 44.9 °F /  7.2 °C 38.8 °F /  3.8 °C 30.10in /  1019.2hPa NNE 4.0mph /  6.4km/h 10.0mph /  16.1km/h 79% 0.00in /  0mm
05:25 44.9 °F /  7.2 °C 38.8 °F /  3.8 °C 30.10in /  1019.2hPa NNE 6.0mph /  9.7km/h 8.0mph /  12.9km/h 79% 0.00in /  0mm
05:30 45.0 °F /  7.2 °C 38.6 °F /  3.7 °C 30.10in /  1019.2hPa NNE 7.0mph /  11.3km/h 10.0mph /  16.1km/h 78% 0.00in /  0mm
05:35 45.1 °F /  7.3 °C 38.7 °F /  3.7 °C 30.10in /  1019.2hPa NE 4.0mph /  6.4km/h 7.0mph /  11.3km/h 78% 0.00in /  0mm
05:40 45.1 °F /  7.3 °C 38.3 °F /  3.5 °C 30.10in /  1019.2hPa ENE 3.0mph /  4.8km/h 6.0mph /  9.7km/h 77% 0.00in /  0mm
05:45 45.2 °F /  7.3 °C 38.8 °F /  3.8 °C 30.11in /  1019.5hPa ENE 5.0mph /  8km/h 5.0mph /  8km/h 78% 0.00in /  0mm
05:46 45.2 °F /  7.3 °C 38.4 °F /  3.6 °C 30.11in /  1019.5hPa NE 2.0mph /  3.2km/h 6.0mph /  9.7km/h 77% 0.00in /  0mm
05:51 45.2 °F /  7.3 °C 38.4 °F /  3.6 °C 30.11in /  1019.5hPa NE 6.0mph /  9.7km/h 7.0mph /  11.3km/h 77% 0.00in /  0mm
05:56 45.3 °F /  7.4 °C 38.5 °F /  3.6 °C 30.11in /  1019.5hPa North 4.0mph /  6.4km/h 6.0mph /  9.7km/h 77% 0.00in /  0mm
06:01 45.3 °F /  7.4 °C 38.5 °F /  3.6 °C 30.11in /  1019.5hPa NE 3.0mph /  4.8km/h 5.0mph /  8km/h 77% 0.00in /  0mm
06:06 45.3 °F /  7.4 °C 38.5 °F /  3.6 °C 30.11in /  1019.5hPa NE 3.0mph /  4.8km/h 6.0mph /  9.7km/h 77% 0.00in /  0mm
06:11 45.4 °F /  7.4 °C 38.3 °F /  3.5 °C 30.11in /  1019.5hPa NE 4.0mph /  6.4km/h 7.0mph /  11.3km/h 76% 0.00in /  0mm
06:16 45.4 °F /  7.4 °C 38.3 °F /  3.5 °C 30.11in /  1019.5hPa ENE 2.0mph /  3.2km/h 6.0mph /  9.7km/h 76% 0.00in /  0mm
06:22 45.4 °F /  7.4 °C 38.6 °F /  3.7 °C 30.11in /  1019.5hPa NE 3.0mph /  4.8km/h 4.0mph /  6.4km/h 77% 0.00in /  0mm
06:27 45.4 °F /  7.4 °C 38.6 °F /  3.7 °C 30.11in /  1019.5hPa ESE 1.0mph /  1.6km/h 3.0mph /  4.8km/h 77% 0.00in /  0mm
06:32 45.4 °F /  7.4 °C 38.6 °F /  3.7 °C 30.11in /  1019.5hPa NE 2.0mph /  3.2km/h 4.0mph /  6.4km/h 77% 0.00in /  0mm
06:37 45.4 °F /  7.4 °C 38.6 °F /  3.7 °C 30.11in /  1019.5hPa ENE 1.0mph /  1.6km/h 5.0mph /  8km/h 77% 0.00in /  0mm
06:42 45.5 °F /  7.5 °C 38.7 °F /  3.7 °C 30.11in /  1019.5hPa ENE 6.0mph /  9.7km/h 7.0mph /  11.3km/h 77% 0.00in /  0mm
06:47 45.5 °F /  7.5 °C 38.7 °F /  3.7 °C 30.11in /  1019.5hPa NE 3.0mph /  4.8km/h 4.0mph /  6.4km/h 77% 0.00in /  0mm
06:52 45.5 °F /  7.5 °C 39.0 °F /  3.9 °C 30.11in /  1019.5hPa NE 2.0mph /  3.2km/h 7.0mph /  11.3km/h 78% 0.00in /  0mm
06:57 45.5 °F /  7.5 °C 38.7 °F /  3.7 °C 30.11in /  1019.5hPa NE 3.0mph /  4.8km/h 6.0mph /  9.7km/h 77% 0.00in /  0mm
07:02 45.4 °F /  7.4 °C 39.0 °F /  3.9 °C 30.11in /  1019.5hPa NE 5.0mph /  8km/h 6.0mph /  9.7km/h 78% 0.00in /  0mm
07:07 45.3 °F /  7.4 °C 38.9 °F /  3.8 °C 30.11in /  1019.5hPa NNE 4.0mph /  6.4km/h 4.0mph /  6.4km/h 78% 0.00in /  0mm
07:12 45.3 °F /  7.4 °C 39.2 °F /  4 °C 30.11in /  1019.5hPa NE 4.0mph /  6.4km/h 5.0mph /  8km/h 79% 0.00in /  0mm
07:17 45.3 °F /  7.4 °C 39.2 °F /  4 °C 30.11in /  1019.5hPa NE 2.0mph /  3.2km/h 6.0mph /  9.7km/h 79% 0.00in /  0mm
07:22 45.4 °F /  7.4 °C 39.3 °F /  4.1 °C 30.11in /  1019.5hPa ENE 2.0mph /  3.2km/h 6.0mph /  9.7km/h 79% 0.00in /  0mm
07:27 45.4 °F /  7.4 °C 39.3 °F /  4.1 °C 30.11in /  1019.5hPa NE 3.0mph /  4.8km/h 4.0mph /  6.4km/h 79% 0.00in /  0mm
07:32 45.4 °F /  7.4 °C 39.3 °F /  4.1 °C 30.11in /  1019.5hPa NE 4.0mph /  6.4km/h 5.0mph /  8km/h 79% 0.00in /  0mm
07:37 45.4 °F /  7.4 °C 39.6 °F /  4.2 °C 30.12in /  1019.9hPa ENE 1.0mph /  1.6km/h 4.0mph /  6.4km/h 80% 0.00in /  0mm
07:42 45.4 °F /  7.4 °C 39.6 °F /  4.2 °C 30.12in /  1019.9hPa NE 3.0mph /  4.8km/h 5.0mph /  8km/h 80% 0.00in /  0mm
07:47 45.5 °F /  7.5 °C 39.7 °F /  4.3 °C 30.12in /  1019.9hPa NNE 1.0mph /  1.6km/h 4.0mph /  6.4km/h 80% 0.00in /  0mm
07:52 45.6 °F /  7.6 °C 39.8 °F /  4.3 °C 30.12in /  1019.9hPa NNW 2.0mph /  3.2km/h 3.0mph /  4.8km/h 80% 0.00in /  0mm
07:57 45.6 °F /  7.6 °C 40.1 °F /  4.5 °C 30.12in /  1019.9hPa NNE 1.0mph /  1.6km/h 2.0mph /  3.2km/h 81% 0.00in /  0mm
08:02 45.6 °F /  7.6 °C 39.8 °F /  4.3 °C 30.13in /  1020.2hPa NNE 1.0mph /  1.6km/h 3.0mph /  4.8km/h 80% 0.00in /  0mm
08:07 45.7 °F /  7.6 °C 40.2 °F /  4.6 °C 30.13in /  1020.2hPa North 1.0mph /  1.6km/h 4.0mph /  6.4km/h 81% 0.00in /  0mm
08:12 45.7 °F /  7.6 °C 40.2 °F /  4.6 °C 30.13in /  1020.2hPa NNE 2.0mph /  3.2km/h 3.0mph /  4.8km/h 81% 0.00in /  0mm
08:17 45.6 °F /  7.6 °C 40.4 °F /  4.7 °C 30.13in /  1020.2hPa NE 2.0mph /  3.2km/h 3.0mph /  4.8km/h 82% 0.00in /  0mm
08:22 45.6 °F /  7.6 °C 40.4 °F /  4.7 °C 30.13in /  1020.2hPa NE 2.0mph /  3.2km/h 4.0mph /  6.4km/h 82% 0.00in /  0mm
08:27 45.6 °F /  7.6 °C 40.7 °F /  4.8 °C 30.13in /  1020.2hPa NE 2.0mph /  3.2km/h 2.0mph /  3.2km/h 83% 0.00in /  0mm
08:32 45.7 °F /  7.6 °C 40.8 °F /  4.9 °C 30.13in /  1020.2hPa NE 3.0mph /  4.8km/h 4.0mph /  6.4km/h 83% 0.00in /  0mm
08:37 45.7 °F /  7.6 °C 40.8 °F /  4.9 °C 30.14in /  1020.5hPa NNE 4.0mph /  6.4km/h 4.0mph /  6.4km/h 83% 0.00in /  0mm
08:42 45.7 °F /  7.6 °C 40.8 °F /  4.9 °C 30.14in /  1020.5hPa NNE 3.0mph /  4.8km/h 3.0mph /  4.8km/h 83% 0.00in /  0mm
08:47 45.6 °F /  7.6 °C 40.7 °F /  4.8 °C 30.14in /  1020.5hPa NE 3.0mph /  4.8km/h 3.0mph /  4.8km/h 83% 0.00in /  0mm
08:52 45.5 °F /  7.5 °C 41.0 °F /  5 °C 30.14in /  1020.5hPa ENE 1.0mph /  1.6km/h 4.0mph /  6.4km/h 84% 0.00in /  0mm
08:57 45.4 °F /  7.4 °C 40.9 °F /  4.9 °C 30.14in /  1020.5hPa ENE 2.0mph /  3.2km/h 4.0mph /  6.4km/h 84% 0.00in /  0mm
09:02 45.3 °F /  7.4 °C 41.4 °F /  5.2 °C 30.14in /  1020.5hPa East 3.0mph /  4.8km/h 4.0mph /  6.4km/h 86% 0.00in /  0mm
09:07 45.2 °F /  7.3 °C 41.6 °F /  5.3 °C 30.15in /  1020.9hPa NE 1.0mph /  1.6km/h 3.0mph /  4.8km/h 87% 0.00in /  0mm
09:12 45.1 °F /  7.3 °C 41.8 °F /  5.4 °C 30.15in /  1020.9hPa NE 3.0mph /  4.8km/h 3.0mph /  4.8km/h 88% 0.07in /  1.78mm
09:17 45.0 °F /  7.2 °C 42.0 °F /  5.6 °C 30.15in /  1020.9hPa East 2.0mph /  3.2km/h 3.0mph /  4.8km/h 89% 0.10in /  2.54mm
09:22 44.9 °F /  7.2 °C 41.9 °F /  5.5 °C 30.15in /  1020.9hPa East 3.0mph /  4.8km/h 3.0mph /  4.8km/h 89% 0.10in /  2.54mm
09:27 44.8 °F /  7.1 °C 42.0 °F /  5.6 °C 30.15in /  1020.9hPa NE 3.0mph /  4.8km/h 5.0mph /  8km/h 90% 0.14in /  3.56mm
09:32 44.7 °F /  7.1 °C 42.2 °F /  5.7 °C 30.15in /  1020.9hPa ENE 2.0mph /  3.2km/h 4.0mph /  6.4km/h 91% 0.13in /  3.3mm
09:38 44.6 °F /  7 °C 42.1 °F /  5.6 °C 30.15in /  1020.9hPa NE 2.0mph /  3.2km/h 4.0mph /  6.4km/h 91% 0.14in /  3.56mm
09:43 44.5 °F /  6.9 °C 42.3 °F /  5.7 °C 30.16in /  1021.2hPa East 2.0mph /  3.2km/h 4.0mph /  6.4km/h 92% 0.12in /  3.05mm
09:48 44.5 °F /  6.9 °C 42.3 °F /  5.7 °C 30.16in /  1021.2hPa ENE 4.0mph /  6.4km/h 6.0mph /  9.7km/h 92% 0.19in /  4.83mm
09:53 44.5 °F /  6.9 °C 42.6 °F /  5.9 °C 30.16in /  1021.2hPa ENE 4.0mph /  6.4km/h 6.0mph /  9.7km/h 93% 0.16in /  4.06mm
09:58 44.5 °F /  6.9 °C 42.6 °F /  5.9 °C 30.16in /  1021.2hPa East 6.0mph /  9.7km/h 6.0mph /  9.7km/h 93% 0.12in /  3.05mm
10:03 44.5 °F /  6.9 °C 42.6 °F /  5.9 °C 30.16in /  1021.2hPa ESE 5.0mph /  8km/h 6.0mph /  9.7km/h 93% 0.11in /  2.79mm
10:08 44.7 °F /  7.1 °C 43.1 °F /  6.2 °C 30.16in /  1021.2hPa East 3.0mph /  4.8km/h 5.0mph /  8km/h 94% 0.08in /  2.03mm
10:13 44.8 °F /  7.1 °C 43.2 °F /  6.2 °C 30.17in /  1021.6hPa NE 3.0mph /  4.8km/h 9.0mph /  14.5km/h 94% 0.08in /  2.03mm
10:18 44.8 °F /  7.1 °C 43.2 °F /  6.2 °C 30.17in /  1021.6hPa NNE 3.0mph /  4.8km/h 5.0mph /  8km/h 94% 0.06in /  1.52mm
10:23 44.8 °F /  7.1 °C 43.2 °F /  6.2 °C 30.17in /  1021.6hPa NNE 4.0mph /  6.4km/h 6.0mph /  9.7km/h 94% 0.06in /  1.52mm
10:28 44.8 °F /  7.1 °C 43.2 °F /  6.2 °C 30.17in /  1021.6hPa NE 2.0mph /  3.2km/h 4.0mph /  6.4km/h 94% 0.07in /  1.78mm
10:33 44.7 °F /  7.1 °C 43.1 °F /  6.2 °C 30.17in /  1021.6hPa NNE 3.0mph /  4.8km/h 4.0mph /  6.4km/h 94% 0.09in /  2.29mm
10:38 44.6 °F /  7 °C 43.0 °F /  6.1 °C 30.17in /  1021.6hPa NNE 2.0mph /  3.2km/h 4.0mph /  6.4km/h 94% 0.07in /  1.78mm
10:43 44.6 °F /  7 °C 43.3 °F /  6.3 °C 30.18in /  1021.9hPa NNE 4.0mph /  6.4km/h 4.0mph /  6.4km/h 95% 0.06in /  1.52mm
10:48 44.6 °F /  7 °C 43.3 °F /  6.3 °C 30.18in /  1021.9hPa NE 1.0mph /  1.6km/h 2.0mph /  3.2km/h 95% 0.06in /  1.52mm
10:53 44.7 °F /  7.1 °C 43.4 °F /  6.3 °C 30.18in /  1021.9hPa NNE 1.0mph /  1.6km/h 3.0mph /  4.8km/h 95% 0.05in /  1.27mm
10:58 44.9 °F /  7.2 °C 43.6 °F /  6.4 °C 30.18in /  1021.9hPa NE 3.0mph /  4.8km/h 3.0mph /  4.8km/h 95% 0.04in /  1.02mm
11:03 45.0 °F /  7.2 °C 43.7 °F /  6.5 °C 30.18in /  1021.9hPa NNE 1.0mph /  1.6km/h 3.0mph /  4.8km/h 95% 0.04in /  1.02mm
11:08 45.2 °F /  7.3 °C 43.9 °F /  6.6 °C 30.18in /  1021.9hPa NE 3.0mph /  4.8km/h 3.0mph /  4.8km/h 95% 0.04in /  1.02mm
11:13 45.3 °F /  7.4 °C 44.0 °F /  6.7 °C 30.17in /  1021.6hPa NE 3.0mph /  4.8km/h 3.0mph /  4.8km/h 95% 0.00in /  0mm
11:18 45.6 °F /  7.6 °C 44.2 °F /  6.8 °C 30.17in /  1021.6hPa NE 4.0mph /  6.4km/h 7.0mph /  11.3km/h 95% 0.00in /  0mm
11:23 45.8 °F /  7.7 °C 44.5 °F /  6.9 °C 30.17in /  1021.6hPa NNE 4.0mph /  6.4km/h 6.0mph /  9.7km/h 95% 0.00in /  0mm
11:28 46.1 °F /  7.8 °C 45.0 °F /  7.2 °C 30.16in /  1021.2hPa NE 1.0mph /  1.6km/h 5.0mph /  8km/h 96% 0.00in /  0mm
11:33 46.5 °F /  8.1 °C 45.4 °F /  7.4 °C 30.16in /  1021.2hPa ENE 3.0mph /  4.8km/h 6.0mph /  9.7km/h 96% 0.00in /  0mm
11:38 46.7 °F /  8.2 °C 45.6 °F /  7.6 °C 30.16in /  1021.2hPa East 3.0mph /  4.8km/h 5.0mph /  8km/h 96% 0.00in /  0mm
11:43 47.0 °F /  8.3 °C 45.9 °F /  7.7 °C 30.15in /  1020.9hPa ENE 6.0mph /  9.7km/h 9.0mph /  14.5km/h 96% 0.00in /  0mm
11:48 47.2 °F /  8.4 °C 46.1 °F /  7.8 °C 30.15in /  1020.9hPa ENE 4.0mph /  6.4km/h 7.0mph /  11.3km/h 96% 0.00in /  0mm
11:53 47.5 °F /  8.6 °C 46.4 °F /  8 °C 30.15in /  1020.9hPa ENE 5.0mph /  8km/h 6.0mph /  9.7km/h 96% 0.00in /  0mm
11:58 47.7 °F /  8.7 °C 46.6 °F /  8.1 °C 30.14in /  1020.5hPa ESE 4.0mph /  6.4km/h 6.0mph /  9.7km/h 96% 0.00in /  0mm
12:03 48.1 °F /  8.9 °C 47.0 °F /  8.3 °C 30.14in /  1020.5hPa East 1.0mph /  1.6km/h 4.0mph /  6.4km/h 96% 0.00in /  0mm
12:08 48.4 °F /  9.1 °C 47.3 °F /  8.5 °C 30.15in /  1020.9hPa NW 3.0mph /  4.8km/h 4.0mph /  6.4km/h 96% 0.00in /  0mm
12:13 48.3 °F /  9.1 °C 47.2 °F /  8.4 °C 30.16in /  1021.2hPa WNW 4.0mph /  6.4km/h 6.0mph /  9.7km/h 96% 0.00in /  0mm
12:18 48.0 °F /  8.9 °C 46.6 °F /  8.1 °C 30.16in /  1021.2hPa WNW 5.0mph /  8km/h 7.0mph /  11.3km/h 95% 0.00in /  0mm
12:23 47.4 °F /  8.6 °C 46.0 °F /  7.8 °C 30.16in /  1021.2hPa WNW 4.0mph /  6.4km/h 7.0mph /  11.3km/h 95% 0.00in /  0mm
12:28 47.2 °F /  8.4 °C 45.8 °F /  7.7 °C 30.16in /  1021.2hPa NW 3.0mph /  4.8km/h 5.0mph /  8km/h 95% 0.00in /  0mm
12:33 46.9 °F /  8.3 °C 45.5 °F /  7.5 °C 30.15in /  1020.9hPa NNW 3.0mph /  4.8km/h 8.0mph /  12.9km/h 95% 0.00in /  0mm
12:38 46.8 °F /  8.2 °C 45.7 °F /  7.6 °C 30.15in /  1020.9hPa North 4.0mph /  6.4km/h 6.0mph /  9.7km/h 96% 0.00in /  0mm
12:43 46.6 °F /  8.1 °C 45.2 °F /  7.3 °C 30.15in /  1020.9hPa North 4.0mph /  6.4km/h 8.0mph /  12.9km/h 95% 0.00in /  0mm
12:48 46.7 °F /  8.2 °C 45.6 °F /  7.6 °C 30.15in /  1020.9hPa NW 9.0mph /  14.5km/h 9.0mph /  14.5km/h 96% 0.00in /  0mm
12:53 46.5 °F /  8.1 °C 45.2 °F /  7.3 °C 30.16in /  1021.2hPa NNW 3.0mph /  4.8km/h 7.0mph /  11.3km/h 95% 0.00in /  0mm
12:59 46.4 °F /  8 °C 45.0 °F /  7.2 °C 30.15in /  1020.9hPa NNE 6.0mph /  9.7km/h 10.0mph /  16.1km/h 95% 0.00in /  0mm
13:04 46.6 °F /  8.1 °C 45.2 °F /  7.3 °C 30.15in /  1020.9hPa North 5.0mph /  8km/h 8.0mph /  12.9km/h 95% 0.00in /  0mm
13:09 46.6 °F /  8.1 °C 45.2 °F /  7.3 °C 30.15in /  1020.9hPa NNE 5.0mph /  8km/h 7.0mph /  11.3km/h 95% 0.00in /  0mm
13:14 46.8 °F /  8.2 °C 45.2 °F /  7.3 °C 30.15in /  1020.9hPa NNE 5.0mph /  8km/h 7.0mph /  11.3km/h 94% 0.00in /  0mm
13:19 46.9 °F /  8.3 °C 45.3 °F /  7.4 °C 30.14in /  1020.5hPa NE 5.0mph /  8km/h 7.0mph /  11.3km/h 94% 0.00in /  0mm
13:24 47.2 °F /  8.4 °C 45.6 °F /  7.6 °C 30.14in /  1020.5hPa NNE 5.0mph /  8km/h 6.0mph /  9.7km/h 94% 0.00in /  0mm
13:29 47.1 °F /  8.4 °C 45.2 °F /  7.3 °C 30.14in /  1020.5hPa NE 3.0mph /  4.8km/h 8.0mph /  12.9km/h 93% 0.00in /  0mm
13:34 47.3 °F /  8.5 °C 45.4 °F /  7.4 °C 30.14in /  1020.5hPa NNE 6.0mph /  9.7km/h 7.0mph /  11.3km/h 93% 0.00in /  0mm
13:39 47.4 °F /  8.6 °C 45.5 °F /  7.5 °C 30.14in /  1020.5hPa NE 3.0mph /  4.8km/h 5.0mph /  8km/h 93% 0.00in /  0mm
13:44 47.4 °F /  8.6 °C 45.5 °F /  7.5 °C 30.14in /  1020.5hPa NE 4.0mph /  6.4km/h 5.0mph /  8km/h 93% 0.00in /  0mm
13:49 47.5 °F /  8.6 °C 45.6 °F /  7.6 °C 30.14in /  1020.5hPa NE 4.0mph /  6.4km/h 6.0mph /  9.7km/h 93% 0.00in /  0mm
13:54 47.6 °F /  8.7 °C 46.0 °F /  7.8 °C 30.14in /  1020.5hPa NE 4.0mph /  6.4km/h 6.0mph /  9.7km/h 94% 0.00in /  0mm
13:59 47.8 °F /  8.8 °C 46.2 °F /  7.9 °C 30.14in /  1020.5hPa NNE 4.0mph /  6.4km/h 6.0mph /  9.7km/h 94% 0.00in /  0mm
14:04 48.1 °F /  8.9 °C 46.5 °F /  8.1 °C 30.13in /  1020.2hPa NNE 2.0mph /  3.2km/h 6.0mph /  9.7km/h 94% 0.00in /  0mm
14:09 48.3 °F /  9.1 °C 46.7 °F /  8.2 °C 30.13in /  1020.2hPa NE 4.0mph /  6.4km/h 5.0mph /  8km/h 94% 0.00in /  0mm
14:14 48.4 °F /  9.1 °C 46.8 °F /  8.2 °C 30.13in /  1020.2hPa NE 2.0mph /  3.2km/h 5.0mph /  8km/h 94% 0.00in /  0mm
14:19 48.6 °F /  9.2 °C 47.0 °F /  8.3 °C 30.13in /  1020.2hPa NE 3.0mph /  4.8km/h 3.0mph /  4.8km/h 94% 0.00in /  0mm
14:24 48.8 °F /  9.3 °C 47.2 °F /  8.4 °C 30.13in /  1020.2hPa NNE 3.0mph /  4.8km/h 4.0mph /  6.4km/h 94% 0.00in /  0mm
14:29 49.0 °F /  9.4 °C 47.3 °F /  8.5 °C 30.13in /  1020.2hPa NNE 3.0mph /  4.8km/h 5.0mph /  8km/h 94% 0.00in /  0mm
14:34 49.3 °F /  9.6 °C 47.7 °F /  8.7 °C 30.13in /  1020.2hPa North 4.0mph /  6.4km/h 5.0mph /  8km/h 94% 0.00in /  0mm
14:39 49.4 °F /  9.7 °C 47.8 °F /  8.8 °C 30.13in /  1020.2hPa NE 5.0mph /  8km/h 5.0mph /  8km/h 94% 0.00in /  0mm
14:44 49.5 °F /  9.7 °C 47.8 °F /  8.8 °C 30.13in /  1020.2hPa NNE 4.0mph /  6.4km/h 6.0mph /  9.7km/h 94% 0.00in /  0mm
14:49 49.7 °F /  9.8 °C 48.0 °F /  8.9 °C 30.13in /  1020.2hPa NNE 4.0mph /  6.4km/h 5.0mph /  8km/h 94% 0.00in /  0mm
14:54 49.8 °F /  9.9 °C 48.2 °F /  9 °C 30.13in /  1020.2hPa NNE 4.0mph /  6.4km/h 5.0mph /  8km/h 94% 0.00in /  0mm
14:59 49.9 °F /  9.9 °C 48.2 °F /  9 °C 30.13in /  1020.2hPa NE 4.0mph /  6.4km/h 7.0mph /  11.3km/h 94% 0.00in /  0mm
15:04 50.3 °F /  10.2 °C 48.6 °F /  9.2 °C 30.13in /  1020.2hPa NNE 2.0mph /  3.2km/h 4.0mph /  6.4km/h 94% 0.00in /  0mm
15:09 50.5 °F /  10.3 °C 48.8 °F /  9.3 °C 30.13in /  1020.2hPa North 3.0mph /  4.8km/h 3.0mph /  4.8km/h 94% 0.00in /  0mm
15:14 50.7 °F /  10.4 °C 49.0 °F /  9.4 °C 30.13in /  1020.2hPa North 2.0mph /  3.2km/h 4.0mph /  6.4km/h 94% 0.00in /  0mm
15:19 50.9 °F /  10.5 °C 49.2 °F /  9.6 °C 30.13in /  1020.2hPa NE 4.0mph /  6.4km/h 4.0mph /  6.4km/h 94% 0.00in /  0mm
15:24 50.8 °F /  10.4 °C 48.8 °F /  9.3 °C 30.13in /  1020.2hPa NE 3.0mph /  4.8km/h 5.0mph /  8km/h 93% 0.00in /  0mm
15:29 50.8 °F /  10.4 °C 48.8 °F /  9.3 °C 30.13in /  1020.2hPa NE 4.0mph /  6.4km/h 4.0mph /  6.4km/h 93% 0.00in /  0mm
15:34 50.8 °F /  10.4 °C 48.8 °F /  9.3 °C 30.13in /  1020.2hPa NNE 3.0mph /  4.8km/h 4.0mph /  6.4km/h 93% 0.00in /  0mm
15:39 50.9 °F /  10.5 °C 49.2 °F /  9.6 °C 30.13in /  1020.2hPa NNE 2.0mph /  3.2km/h 4.0mph /  6.4km/h 94% 0.00in /  0mm
15:44 51.1 °F /  10.6 °C 49.4 °F /  9.7 °C 30.13in /  1020.2hPa NNE 2.0mph /  3.2km/h 3.0mph /  4.8km/h 94% 0.00in /  0mm
15:50 51.2 °F /  10.7 °C 49.5 °F /  9.7 °C 30.13in /  1020.2hPa NNE 3.0mph /  4.8km/h 3.0mph /  4.8km/h 94% 0.00in /  0mm
15:55 51.4 °F /  10.8 °C 49.7 °F /  9.8 °C 30.13in /  1020.2hPa NNE 3.0mph /  4.8km/h 4.0mph /  6.4km/h 94% 0.00in /  0mm
16:00 51.3 °F /  10.7 °C 49.6 °F /  9.8 °C 30.13in /  1020.2hPa North 1.0mph /  1.6km/h 3.0mph /  4.8km/h 94% 0.00in /  0mm
16:05 51.3 °F /  10.7 °C 49.6 °F /  9.8 °C 30.13in /  1020.2hPa NNE 4.0mph /  6.4km/h 4.0mph /  6.4km/h 94% 0.00in /  0mm
16:10 51.3 °F /  10.7 °C 49.6 °F /  9.8 °C 30.14in /  1020.5hPa NNE 1.0mph /  1.6km/h 3.0mph /  4.8km/h 94% 0.00in /  0mm
16:15 51.3 °F /  10.7 °C 49.6 °F /  9.8 °C 30.14in /  1020.5hPa NE 1.0mph /  1.6km/h 2.0mph /  3.2km/h 94% 0.00in /  0mm
16:20 51.3 °F /  10.7 °C 49.6 °F /  9.8 °C 30.14in /  1020.5hPa NE 1.0mph /  1.6km/h 1.0mph /  1.6km/h 94% 0.00in /  0mm
16:25 51.3 °F /  10.7 °C 49.6 °F /  9.8 °C 30.14in /  1020.5hPa NE 2.0mph /  3.2km/h 2.0mph /  3.2km/h 94% 0.00in /  0mm
16:30 51.2 °F /  10.7 °C 49.5 °F /  9.7 °C 30.14in /  1020.5hPa NE 1.0mph /  1.6km/h 2.0mph /  3.2km/h 94% 0.00in /  0mm
16:35 51.2 °F /  10.7 °C 49.5 °F /  9.7 °C 30.14in /  1020.5hPa NE 1.0mph /  1.6km/h 1.0mph /  1.6km/h 94% 0.00in /  0mm
16:40 51.2 °F /  10.7 °C 49.5 °F /  9.7 °C 30.15in /  1020.9hPa Calm   1.0mph /  1.6km/h 94% 0.00in /  0mm
16:45 51.2 °F /  10.7 °C 49.5 °F /  9.7 °C 30.15in /  1020.9hPa Calm     94% 0.00in /  0mm
16:50 51.3 °F /  10.7 °C 49.6 °F /  9.8 °C 30.15in /  1020.9hPa Calm   1.0mph /  1.6km/h 94% 0.00in /  0mm
16:55 51.3 °F /  10.7 °C 49.6 °F /  9.8 °C 30.15in /  1020.9hPa NE 3.0mph /  4.8km/h 3.0mph /  4.8km/h 94% 0.00in /  0mm
17:00 51.3 °F /  10.7 °C 49.6 °F /  9.8 °C 30.15in /  1020.9hPa NNE 2.0mph /  3.2km/h 3.0mph /  4.8km/h 94% 0.00in /  0mm
17:05 51.3 °F /  10.7 °C 49.6 °F /  9.8 °C 30.15in /  1020.9hPa NNE 2.0mph /  3.2km/h 3.0mph /  4.8km/h 94% 0.00in /  0mm
17:10 51.3 °F /  10.7 °C 49.6 °F /  9.8 °C 30.15in /  1020.9hPa NNE 2.0mph /  3.2km/h 4.0mph /  6.4km/h 94% 0.00in /  0mm
17:15 51.3 °F /  10.7 °C 49.9 °F /  9.9 °C 30.15in /  1020.9hPa NE 1.0mph /  1.6km/h 3.0mph /  4.8km/h 95% 0.00in /  0mm
17:20 51.2 °F /  10.7 °C 49.8 °F /  9.9 °C 30.14in /  1020.5hPa NE 2.0mph /  3.2km/h 4.0mph /  6.4km/h 95% 0.00in /  0mm
17:25 51.2 °F /  10.7 °C 49.8 °F /  9.9 °C 30.14in /  1020.5hPa ENE 3.0mph /  4.8km/h 3.0mph /  4.8km/h 95% 0.00in /  0mm
17:30 51.1 °F /  10.6 °C 49.7 °F /  9.8 °C 30.14in /  1020.5hPa NE 2.0mph /  3.2km/h 3.0mph /  4.8km/h 95% 0.00in /  0mm
17:35 51.0 °F /  10.6 °C 49.6 °F /  9.8 °C 30.15in /  1020.9hPa ENE 3.0mph /  4.8km/h 4.0mph /  6.4km/h 95% 0.00in /  0mm
17:40 50.9 °F /  10.5 °C 49.5 °F /  9.7 °C 30.15in /  1020.9hPa East 1.0mph /  1.6km/h 3.0mph /  4.8km/h 95% 0.00in /  0mm
17:45 50.9 °F /  10.5 °C 49.5 °F /  9.7 °C 30.15in /  1020.9hPa NE 1.0mph /  1.6km/h 3.0mph /  4.8km/h 95% 0.00in /  0mm
17:50 50.8 °F /  10.4 °C 49.4 °F /  9.7 °C 30.14in /  1020.5hPa NNE 3.0mph /  4.8km/h 5.0mph /  8km/h 95% 0.00in /  0mm
17:55 50.7 °F /  10.4 °C 49.3 °F /  9.6 °C 30.14in /  1020.5hPa NE 4.0mph /  6.4km/h 5.0mph /  8km/h 95% 0.00in /  0mm
18:00 50.6 °F /  10.3 °C 49.2 °F /  9.6 °C 30.14in /  1020.5hPa NE 3.0mph /  4.8km/h 5.0mph /  8km/h 95% 0.00in /  0mm
18:05 50.5 °F /  10.3 °C 49.1 °F /  9.5 °C 30.15in /  1020.9hPa NE 4.0mph /  6.4km/h 6.0mph /  9.7km/h 95% 0.00in /  0mm
18:10 50.4 °F /  10.2 °C 49.0 °F /  9.4 °C 30.15in /  1020.9hPa NE 4.0mph /  6.4km/h 5.0mph /  8km/h 95% 0.00in /  0mm
18:15 50.3 °F /  10.2 °C 48.9 °F /  9.4 °C 30.15in /  1020.9hPa NE 2.0mph /  3.2km/h 5.0mph /  8km/h 95% 0.00in /  0mm
18:20 50.1 °F /  10.1 °C 48.7 °F /  9.3 °C 30.15in /  1020.9hPa ENE 3.0mph /  4.8km/h 5.0mph /  8km/h 95% 0.00in /  0mm
18:26 49.9 °F /  9.9 °C 48.5 °F /  9.2 °C 30.16in /  1021.2hPa ENE 5.0mph /  8km/h 7.0mph /  11.3km/h 95% 0.00in /  0mm
18:31 49.6 °F /  9.8 °C 48.0 °F /  8.9 °C 30.16in /  1021.2hPa ENE 1.0mph /  1.6km/h 4.0mph /  6.4km/h 94% 0.00in /  0mm
18:36 49.5 °F /  9.7 °C 47.8 °F /  8.8 °C 30.17in /  1021.6hPa NNE 2.0mph /  3.2km/h 3.0mph /  4.8km/h 94% 0.00in /  0mm
18:41 49.5 °F /  9.7 °C 47.8 °F /  8.8 °C 30.17in /  1021.6hPa NNE 2.0mph /  3.2km/h 2.0mph /  3.2km/h 94% 0.00in /  0mm
18:46 49.4 °F /  9.7 °C 47.8 °F /  8.8 °C 30.17in /  1021.6hPa NE 1.0mph /  1.6km/h 3.0mph /  4.8km/h 94% 0.00in /  0mm
18:51 49.4 °F /  9.7 °C 47.8 °F /  8.8 °C 30.17in /  1021.6hPa ENE 2.0mph /  3.2km/h 2.0mph /  3.2km/h 94% 0.00in /  0mm
18:56 49.3 °F /  9.6 °C 47.7 °F /  8.7 °C 30.17in /  1021.6hPa East 1.0mph /  1.6km/h 2.0mph /  3.2km/h 94% 0.00in /  0mm
19:01 49.3 °F /  9.6 °C 47.7 °F /  8.7 °C 30.17in /  1021.6hPa ESE 2.0mph /  3.2km/h 2.0mph /  3.2km/h 94% 0.00in /  0mm
19:06 49.3 °F /  9.6 °C 47.7 °F /  8.7 °C 30.17in /  1021.6hPa East 1.0mph /  1.6km/h 1.0mph /  1.6km/h 94% 0.00in /  0mm
19:11 49.2 °F /  9.6 °C 47.5 °F /  8.6 °C 30.17in /  1021.6hPa ESE 1.0mph /  1.6km/h 2.0mph /  3.2km/h 94% 0.00in /  0mm
19:16 49.1 °F /  9.5 °C 47.5 °F /  8.6 °C 30.17in /  1021.6hPa ESE 2.0mph /  3.2km/h 2.0mph /  3.2km/h 94% 0.00in /  0mm
19:21 49.0 °F /  9.4 °C 47.3 °F /  8.5 °C 30.17in /  1021.6hPa ESE 1.0mph /  1.6km/h 2.0mph /  3.2km/h 94% 0.00in /  0mm
19:26 48.9 °F /  9.4 °C 47.2 °F /  8.4 °C 30.17in /  1021.6hPa East 1.0mph /  1.6km/h 2.0mph /  3.2km/h 94% 0.00in /  0mm
19:31 48.9 °F /  9.4 °C 47.2 °F /  8.4 °C 30.17in /  1021.6hPa ESE 2.0mph /  3.2km/h 2.0mph /  3.2km/h 94% 0.00in /  0mm
19:36 48.9 °F /  9.4 °C 47.2 °F /  8.4 °C 30.17in /  1021.6hPa ESE 1.0mph /  1.6km/h 2.0mph /  3.2km/h 94% 0.00in /  0mm
19:41 48.8 °F /  9.3 °C 47.2 °F /  8.4 °C 30.17in /  1021.6hPa Calm   1.0mph /  1.6km/h 94% 0.00in /  0mm
19:46 48.8 °F /  9.3 °C 46.9 °F /  8.3 °C 30.16in /  1021.2hPa NE 2.0mph /  3.2km/h 3.0mph /  4.8km/h 93% 0.00in /  0mm
19:51 48.9 °F /  9.4 °C 47.0 °F /  8.3 °C 30.16in /  1021.2hPa ENE 2.0mph /  3.2km/h 3.0mph /  4.8km/h 93% 0.00in /  0mm
19:56 48.9 °F /  9.4 °C 47.0 °F /  8.3 °C 30.16in /  1021.2hPa East 1.0mph /  1.6km/h 2.0mph /  3.2km/h 93% 0.00in /  0mm
20:01 48.9 °F /  9.4 °C 47.0 °F /  8.3 °C 30.16in /  1021.2hPa East 1.0mph /  1.6km/h 3.0mph /  4.8km/h 93% 0.00in /  0mm
20:06 48.9 °F /  9.4 °C 47.0 °F /  8.3 °C 30.16in /  1021.2hPa East 1.0mph /  1.6km/h 3.0mph /  4.8km/h 93% 0.00in /  0mm
20:11 48.9 °F /  9.4 °C 47.0 °F /  8.3 °C 30.17in /  1021.6hPa ENE 3.0mph /  4.8km/h 4.0mph /  6.4km/h 93% 0.00in /  0mm
20:16 48.9 °F /  9.4 °C 47.0 °F /  8.3 °C 30.16in /  1021.2hPa East 4.0mph /  6.4km/h 4.0mph /  6.4km/h 93% 0.00in /  0mm
20:21 48.9 °F /  9.4 °C 47.0 °F /  8.3 °C 30.16in /  1021.2hPa NE 2.0mph /  3.2km/h 3.0mph /  4.8km/h 93% 0.00in /  0mm
20:26 48.8 °F /  9.3 °C 46.9 °F /  8.3 °C 30.16in /  1021.2hPa ENE 3.0mph /  4.8km/h 5.0mph /  8km/h 93% 0.00in /  0mm
20:31 48.8 °F /  9.3 °C 46.6 °F /  8.1 °C 30.16in /  1021.2hPa North 3.0mph /  4.8km/h 5.0mph /  8km/h 92% 0.00in /  0mm
20:36 48.8 °F /  9.3 °C 46.6 °F /  8.1 °C 30.16in /  1021.2hPa NE 4.0mph /  6.4km/h 8.0mph /  12.9km/h 92% 0.00in /  0mm
20:41 48.8 °F /  9.3 °C 46.6 °F /  8.1 °C 30.16in /  1021.2hPa NNE 3.0mph /  4.8km/h 6.0mph /  9.7km/h 92% 0.00in /  0mm
20:46 48.8 °F /  9.3 °C 46.6 °F /  8.1 °C 30.16in /  1021.2hPa NE 3.0mph /  4.8km/h 6.0mph /  9.7km/h 92% 0.00in /  0mm
20:51 48.8 °F /  9.3 °C 46.6 °F /  8.1 °C 30.16in /  1021.2hPa ENE 4.0mph /  6.4km/h 6.0mph /  9.7km/h 92% 0.00in /  0mm
20:56 48.7 °F /  9.3 °C 46.5 °F /  8.1 °C 30.16in /  1021.2hPa NE 4.0mph /  6.4km/h 6.0mph /  9.7km/h 92% 0.00in /  0mm
21:02 48.7 °F /  9.3 °C 46.5 °F /  8.1 °C 30.16in /  1021.2hPa NE 6.0mph /  9.7km/h 6.0mph /  9.7km/h 92% 0.00in /  0mm
21:07 48.7 °F /  9.3 °C 46.8 °F /  8.2 °C 30.16in /  1021.2hPa NE 3.0mph /  4.8km/h 6.0mph /  9.7km/h 93% 0.00in /  0mm
21:12 48.7 °F /  9.3 °C 46.8 °F /  8.2 °C 30.15in /  1020.9hPa NE 3.0mph /  4.8km/h 7.0mph /  11.3km/h 93% 0.00in /  0mm
21:17 48.6 °F /  9.2 °C 46.7 °F /  8.2 °C 30.15in /  1020.9hPa NNE 6.0mph /  9.7km/h 8.0mph /  12.9km/h 93% 0.00in /  0mm
21:22 48.6 °F /  9.2 °C 46.7 °F /  8.2 °C 30.15in /  1020.9hPa NE 6.0mph /  9.7km/h 7.0mph /  11.3km/h 93% 0.00in /  0mm
21:27 48.5 °F /  9.2 °C 46.6 °F /  8.1 °C 30.15in /  1020.9hPa NNE 3.0mph /  4.8km/h 6.0mph /  9.7km/h 93% 0.00in /  0mm
21:32 48.5 °F /  9.2 °C 46.6 °F /  8.1 °C 30.16in /  1021.2hPa NE 2.0mph /  3.2km/h 6.0mph /  9.7km/h 93% 0.00in /  0mm
21:37 48.5 °F /  9.2 °C 46.6 °F /  8.1 °C 30.15in /  1020.9hPa NE 4.0mph /  6.4km/h 4.0mph /  6.4km/h 93% 0.00in /  0mm
21:42 48.5 °F /  9.2 °C 46.6 °F /  8.1 °C 30.15in /  1020.9hPa NE 3.0mph /  4.8km/h 3.0mph /  4.8km/h 93% 0.00in /  0mm
21:47 48.5 °F /  9.2 °C 46.9 °F /  8.3 °C 30.15in /  1020.9hPa ENE 1.0mph /  1.6km/h 5.0mph /  8km/h 94% 0.00in /  0mm
21:52 48.4 °F /  9.1 °C 46.8 °F /  8.2 °C 30.16in /  1021.2hPa East 1.0mph /  1.6km/h 2.0mph /  3.2km/h 94% 0.00in /  0mm
21:57 48.4 °F /  9.1 °C 46.8 °F /  8.2 °C 30.16in /  1021.2hPa ENE 2.0mph /  3.2km/h 2.0mph /  3.2km/h 94% 0.00in /  0mm
22:02 48.4 °F /  9.1 °C 46.8 °F /  8.2 °C 30.15in /  1020.9hPa East 1.0mph /  1.6km/h 3.0mph /  4.8km/h 94% 0.00in /  0mm
22:07 48.4 °F /  9.1 °C 46.8 °F /  8.2 °C 30.15in /  1020.9hPa East 2.0mph /  3.2km/h 3.0mph /  4.8km/h 94% 0.00in /  0mm
22:12 48.4 °F /  9.1 °C 46.8 °F /  8.2 °C 30.15in /  1020.9hPa ENE 3.0mph /  4.8km/h 4.0mph /  6.4km/h 94% 0.00in /  0mm
22:17 48.3 °F /  9.1 °C 46.7 °F /  8.2 °C 30.15in /  1020.9hPa ESE 2.0mph /  3.2km/h 4.0mph /  6.4km/h 94% 0.00in /  0mm
22:22 48.3 °F /  9.1 °C 46.7 °F /  8.2 °C 30.15in /  1020.9hPa ESE 2.0mph /  3.2km/h 2.0mph /  3.2km/h 94% 0.00in /  0mm
22:27 48.3 °F /  9.1 °C 46.7 °F /  8.2 °C 30.15in /  1020.9hPa Calm   2.0mph /  3.2km/h 94% 0.00in /  0mm
22:32 48.3 °F /  9.1 °C 46.9 °F /  8.3 °C 30.15in /  1020.9hPa East 2.0mph /  3.2km/h 2.0mph /  3.2km/h 95% 0.00in /  0mm
22:37 48.3 °F /  9.1 °C 46.9 °F /  8.3 °C 30.15in /  1020.9hPa East 1.0mph /  1.6km/h 1.0mph /  1.6km/h 95% 0.00in /  0mm
22:42 48.3 °F /  9.1 °C 46.9 °F /  8.3 °C 30.16in /  1021.2hPa Calm     95% 0.00in /  0mm
22:47 48.3 °F /  9.1 °C 46.9 °F /  8.3 °C 30.16in /  1021.2hPa NNE 1.0mph /  1.6km/h 1.0mph /  1.6km/h 95% 0.00in /  0mm
22:52 48.2 °F /  9 °C 46.8 °F /  8.2 °C 30.15in /  1020.9hPa NE 1.0mph /  1.6km/h 1.0mph /  1.6km/h 95% 0.00in /  0mm
22:57 48.2 °F /  9 °C 46.8 °F /  8.2 °C 30.15in /  1020.9hPa NE 1.0mph /  1.6km/h 2.0mph /  3.2km/h 95% 0.00in /  0mm
23:02 48.2 °F /  9 °C 46.8 °F /  8.2 °C 30.15in /  1020.9hPa ENE 2.0mph /  3.2km/h 3.0mph /  4.8km/h 95% 0.00in /  0mm
23:07 48.2 °F /  9 °C 46.8 °F /  8.2 °C 30.15in /  1020.9hPa ESE 2.0mph /  3.2km/h 2.0mph /  3.2km/h 95% 0.00in /  0mm
23:12 48.2 °F /  9 °C 46.8 °F /  8.2 °C 30.14in /  1020.5hPa East 2.0mph /  3.2km/h 3.0mph /  4.8km/h 95% 0.00in /  0mm
23:17 48.2 °F /  9 °C 46.8 °F /  8.2 °C 30.14in /  1020.5hPa SE 1.0mph /  1.6km/h 3.0mph /  4.8km/h 95% 0.00in /  0mm
23:22 48.1 °F /  8.9 °C 47.0 °F /  8.3 °C 30.15in /  1020.9hPa Calm   2.0mph /  3.2km/h 96% 0.00in /  0mm
23:27 48.1 °F /  8.9 °C 47.0 °F /  8.3 °C 30.15in /  1020.9hPa Calm   1.0mph /  1.6km/h 96% 0.00in /  0mm
23:32 48.1 °F /  8.9 °C 47.0 °F /  8.3 °C 30.14in /  1020.5hPa Calm   1.0mph /  1.6km/h 96% 0.00in /  0mm
23:37 48.1 °F /  8.9 °C 47.0 °F /  8.3 °C 30.15in /  1020.9hPa Calm     96% 0.00in /  0mm
23:42 48.1 °F /  8.9 °C 47.0 °F /  8.3 °C 30.14in /  1020.5hPa Calm   1.0mph /  1.6km/h 96% 0.00in /  0mm
23:47 48.1 °F /  8.9 °C 47.0 °F /  8.3 °C 30.14in /  1020.5hPa Calm     96% 0.00in /  0mm
23:52 48.1 °F /  8.9 °C 47.0 °F /  8.3 °C 30.14in /  1020.5hPa Calm   1.0mph /  1.6km/h 96% 0.00in /  0mm
23:57 48.1 °F /  8.9 °C 47.0 °F /  8.3 °C 30.14in /  1020.5hPa Calm   1.0mph /  1.6km/h 96% 0.00in /  0mm
Compliments of Weather Underground